sensor_id;sensor_type;location;lat;lon;timestamp;pressure;altitude;pressure_sealevel;temperature;humidity
76044;BME280;64740;34.694;33.088;2024-03-25T00:00:08;1034.5;;;16.3;44.8
76044;BME280;64740;34.694;33.088;2024-03-25T00:05:17;1034.5;;;16.6;44.5
76044;BME280;64740;34.694;33.088;2024-03-25T00:09:47;1034.5;;;16.6;44.5
76044;BME280;64740;34.694;33.088;2024-03-25T00:14:55;1034.4;;;17.1;43.9
76044;BME280;64740;34.694;33.088;2024-03-25T00:19:59;1034.5;;;17.5;43.3
76044;BME280;64740;34.694;33.088;2024-03-25T00:24:55;1034.5;;;17.9;42.9
76044;BME280;64740;34.694;33.088;2024-03-25T00:29:47;1034.4;;;18.1;42.5
76044;BME280;64740;34.694;33.088;2024-03-25T00:35:19;1034.3;;;18.6;41.9
76044;BME280;64740;34.694;33.088;2024-03-25T00:40:17;1034.3;;;18.7;41.7
76044;BME280;64740;34.694;33.088;2024-03-25T00:45:27;1034.3;;;18.8;41.5
76044;BME280;64740;34.694;33.088;2024-03-25T00:50:17;1034.3;;;18.8;41.4
76044;BME280;64740;34.694;33.088;2024-03-25T00:54:47;1034.3;;;18.8;41.4
76044;BME280;64740;34.694;33.088;2024-03-25T01:00:27;1034.3;;;18.9;41.2
76044;BME280;64740;34.694;33.088;2024-03-25T01:05:27;1034.3;;;18.9;41.1
76044;BME280;64740;34.694;33.088;2024-03-25T01:10:27;1034.3;;;19;40.9
76044;BME280;64740;34.694;33.088;2024-03-25T01:14:55;1034.3;;;19;40.9
76044;BME280;64740;34.694;33.088;2024-03-25T01:20:13;1034.4;;;19;41.2
76044;BME280;64740;34.694;33.088;2024-03-25T01:25:17;1034.4;;;19;40.3
76044;BME280;64740;34.694;33.088;2024-03-25T01:30:27;1034.4;;;18.9;39.6
76044;BME280;64740;34.694;33.088;2024-03-25T01:35:08;1034.4;;;18.8;38.8
76044;BME280;64740;34.694;33.088;2024-03-25T01:40:27;1034.3;;;18.7;37.5
76044;BME280;64740;34.694;33.088;2024-03-25T01:45:08;1034.3;;;18.6;37.4
76044;BME280;64740;34.694;33.088;2024-03-25T01:49:47;1034.3;;;18.6;37.4
76044;BME280;64740;34.694;33.088;2024-03-25T01:54:55;1034.4;;;18.6;37.2
76044;BME280;64740;34.694;33.088;2024-03-25T01:59:55;1034.4;;;18.5;37.1
76044;BME280;64740;34.694;33.088;2024-03-25T02:05:05;1034.3;;;18.5;36.4
76044;BME280;64740;34.694;33.088;2024-03-25T02:09:47;1034.3;;;18.5;36.4
76044;BME280;64740;34.694;33.088;2024-03-25T02:15:17;1034.3;;;18.4;36.6
76044;BME280;64740;34.694;33.088;2024-03-25T02:20:17;1034.3;;;18.3;36.3
76044;BME280;64740;34.694;33.088;2024-03-25T02:25:19;1034.3;;;18.3;36.4
76044;BME280;64740;34.694;33.088;2024-03-25T02:30:04;1034.3;;;18.3;36.4
76044;BME280;64740;34.694;33.088;2024-03-25T02:35:27;1034.3;;;18.2;37.5
76044;BME280;64740;34.694;33.088;2024-03-25T02:39:47;1034.3;;;18.2;37.5
76044;BME280;64740;34.694;33.088;2024-03-25T02:45:17;1034.3;;;18.4;40
76044;BME280;64740;34.694;33.088;2024-03-25T02:49:55;1034.3;;;18.4;40
76044;BME280;64740;34.694;33.088;2024-03-25T02:54:49;1034.4;;;18.5;39.1
76044;BME280;64740;34.694;33.088;2024-03-25T03:00:27;1034.4;;;18.4;39.2
76044;BME280;64740;34.694;33.088;2024-03-25T03:04:57;1034.4;;;18.4;39.2
76044;BME280;64740;34.694;33.088;2024-03-25T03:09:48;1034.5;;;18.4;39.5
76044;BME280;64740;34.694;33.088;2024-03-25T03:15:27;1034.5;;;18.3;39.3
76044;BME280;64740;34.694;33.088;2024-03-25T03:20:27;1034.6;;;18.3;39
76044;BME280;64740;34.694;33.088;2024-03-25T03:25:17;1034.7;;;18.2;38.7
76044;BME280;64740;34.694;33.088;2024-03-25T03:30:06;1034.7;;;18.2;38.1
76044;BME280;64740;34.694;33.088;2024-03-25T03:35:04;1034.7;;;18.2;38.1
76044;BME280;64740;34.694;33.088;2024-03-25T03:39:47;1034.8;;;18.1;40.3
76044;BME280;64740;34.694;33.088;2024-03-25T03:44:47;1034.9;;;18.2;42.3
76044;BME280;64740;34.694;33.088;2024-03-25T03:50:17;1035;;;18.4;43.5
76044;BME280;64740;34.694;33.088;2024-03-25T03:54:47;1035;;;18.4;43.5
76044;BME280;64740;34.694;33.088;2024-03-25T04:00:27;1035.2;;;18.6;43.1
76044;BME280;64740;34.694;33.088;2024-03-25T04:04:47;1035.2;;;18.6;43.1
76044;BME280;64740;34.694;33.088;2024-03-25T04:10:26;1035.4;;;18.8;42.8
76044;BME280;64740;34.694;33.088;2024-03-25T04:14:55;1035.4;;;18.8;42.8
76044;BME280;64740;34.694;33.088;2024-03-25T04:19:59;1035.5;;;18.8;42.9
76044;BME280;64740;34.694;33.088;2024-03-25T04:24:47;1035.6;;;18.9;42.5
76044;BME280;64740;34.694;33.088;2024-03-25T04:30:06;1035.7;;;19.1;41.8
76044;BME280;64740;34.694;33.088;2024-03-25T04:35:27;1035.7;;;19.2;41.9
76044;BME280;64740;34.694;33.088;2024-03-25T04:40:10;1035.8;;;19.4;41.8
76044;BME280;64740;34.694;33.088;2024-03-25T04:44:47;1035.8;;;19.4;41.8
76044;BME280;64740;34.694;33.088;2024-03-25T04:50:27;1035.9;;;19.7;41.5
76044;BME280;64740;34.694;33.088;2024-03-25T04:55:27;1035.9;;;19.7;41.1
76044;BME280;64740;34.694;33.088;2024-03-25T05:00:18;1036;;;19.8;41.2
76044;BME280;64740;34.694;33.088;2024-03-25T05:04:47;1036;;;19.8;41.2
76044;BME280;64740;34.694;33.088;2024-03-25T05:09:55;1036;;;19.9;41.4
76044;BME280;64740;34.694;33.088;2024-03-25T05:14:47;1036.1;;;20.1;41.5
76044;BME280;64740;34.694;33.088;2024-03-25T05:19:55;1036.1;;;20.1;41.6
76044;BME280;64740;34.694;33.088;2024-03-25T05:25:13;1036.2;;;20.2;41.8
76044;BME280;64740;34.694;33.088;2024-03-25T05:30:17;1036.2;;;20.3;41.7
76044;BME280;64740;34.694;33.088;2024-03-25T05:35:06;1036.3;;;20.4;41.7
76044;BME280;64740;34.694;33.088;2024-03-25T05:40:04;1036.3;;;20.4;41.7
76044;BME280;64740;34.694;33.088;2024-03-25T05:45:27;1036.3;;;20.5;41.7
76044;BME280;64740;34.694;33.088;2024-03-25T05:50:17;1036.3;;;20.6;41.6
76044;BME280;64740;34.694;33.088;2024-03-25T05:54:57;1036.3;;;20.6;41.6
76044;BME280;64740;34.694;33.088;2024-03-25T06:00:02;1036.3;;;20.7;41.7
76044;BME280;64740;34.694;33.088;2024-03-25T06:05:14;1036.4;;;20.9;41.7
76044;BME280;64740;34.694;33.088;2024-03-25T06:10:06;1036.5;;;20.9;41.4
76044;BME280;64740;34.694;33.088;2024-03-25T06:15:13;1036.5;;;20.9;41.2
76044;BME280;64740;34.694;33.088;2024-03-25T06:19:47;1036.5;;;20.9;41.2
76044;BME280;64740;34.694;33.088;2024-03-25T06:25:16;1036.5;;;21.2;40.7
76044;BME280;64740;34.694;33.088;2024-03-25T06:30:27;1036.6;;;21.3;40.6
76044;BME280;64740;34.694;33.088;2024-03-25T06:35:06;1036.5;;;21.3;40.5
76044;BME280;64740;34.694;33.088;2024-03-25T06:40:15;1036.5;;;21.4;39.2
76044;BME280;64740;34.694;33.088;2024-03-25T06:44:47;1036.5;;;21.4;39.2
76044;BME280;64740;34.694;33.088;2024-03-25T06:50:08;1036.6;;;21.7;38.5
76044;BME280;64740;34.694;33.088;2024-03-25T06:55:25;1036.7;;;21.7;38.9
76044;BME280;64740;34.694;33.088;2024-03-25T06:59:55;1036.7;;;21.7;38.9
76044;BME280;64740;34.694;33.088;2024-03-25T07:04:58;1036.7;;;21.7;39.6
76044;BME280;64740;34.694;33.088;2024-03-25T07:10:25;1036.8;;;21.8;39
76044;BME280;64740;34.694;33.088;2024-03-25T07:15:15;1036.9;;;21.9;39.3
76044;BME280;64740;34.694;33.088;2024-03-25T07:20:15;1037;;;21.9;39.6
76044;BME280;64740;34.694;33.088;2024-03-25T07:25:25;1037;;;22;40.2
76044;BME280;64740;34.694;33.088;2024-03-25T07:29:55;1037;;;22;40.2
76044;BME280;64740;34.694;33.088;2024-03-25T07:35:27;1037;;;22.1;39
76044;BME280;64740;34.694;33.088;2024-03-25T07:40:20;1037;;;22.1;39.4
76044;BME280;64740;34.694;33.088;2024-03-25T07:44:49;1037;;;22.1;39.4
76044;BME280;64740;34.694;33.088;2024-03-25T07:50:04;1037.1;;;22.2;39.3
76044;BME280;64740;34.694;33.088;2024-03-25T07:55:13;1037.2;;;22.3;39.5
76044;BME280;64740;34.694;33.088;2024-03-25T08:00:28;1037.2;;;22.3;38.6
76044;BME280;64740;34.694;33.088;2024-03-25T08:05:28;1037.2;;;22.3;38.1
76044;BME280;64740;34.694;33.088;2024-03-25T08:10:08;1037.3;;;22.4;38.1
76044;BME280;64740;34.694;33.088;2024-03-25T08:15:28;1037.4;;;22.4;37.7
76044;BME280;64740;34.694;33.088;2024-03-25T08:19:58;1037.4;;;22.4;37.7
76044;BME280;64740;34.694;33.088;2024-03-25T08:24:56;1037.4;;;22.3;37.6
76044;BME280;64740;34.694;33.088;2024-03-25T08:29:48;1037.5;;;22.2;37.6
76044;BME280;64740;34.694;33.088;2024-03-25T08:34:48;1037.4;;;22.2;37.8
76044;BME280;64740;34.694;33.088;2024-03-25T08:40:08;1037.4;;;22.4;38.4
76044;BME280;64740;34.694;33.088;2024-03-25T08:44:48;1037.4;;;22.4;38.4
76044;BME280;64740;34.694;33.088;2024-03-25T08:50:08;1037.4;;;22.4;38.7
76044;BME280;64740;34.694;33.088;2024-03-25T08:55:26;1037.5;;;22.5;37.6
76044;BME280;64740;34.694;33.088;2024-03-25T09:00:26;1037.5;;;22.6;38.3
76044;BME280;64740;34.694;33.088;2024-03-25T09:05:10;1037.5;;;22.7;38.3
76044;BME280;64740;34.694;33.088;2024-03-25T09:10:28;1037.5;;;22.7;39.2
76044;BME280;64740;34.694;33.088;2024-03-25T09:14:48;1037.5;;;22.7;39.2
76044;BME280;64740;34.694;33.088;2024-03-25T09:20:18;1037.5;;;22.7;38.4
76044;BME280;64740;34.694;33.088;2024-03-25T09:25:04;1037.5;;;22.7;38.4
76044;BME280;64740;34.694;33.088;2024-03-25T09:30:12;1037.5;;;22.9;38.5
76044;BME280;64740;34.694;33.088;2024-03-25T09:35:28;1037.5;;;22.9;37.8
76044;BME280;64740;34.694;33.088;2024-03-25T09:40:18;1037.5;;;22.9;38.2
76044;BME280;64740;34.694;33.088;2024-03-25T09:45:08;1037.5;;;22.8;38
76044;BME280;64740;34.694;33.088;2024-03-25T09:50:26;1037.5;;;22.8;37.1
76044;BME280;64740;34.694;33.088;2024-03-25T09:55:16;1037.5;;;22.8;36.5
76044;BME280;64740;34.694;33.088;2024-03-25T10:00:16;1037.5;;;22.8;36.7
76044;BME280;64740;34.694;33.088;2024-03-25T10:05:16;1037.5;;;22.8;38.5
76044;BME280;64740;34.694;33.088;2024-03-25T10:09:48;1037.5;;;22.8;38.5
76044;BME280;64740;34.694;33.088;2024-03-25T10:14:56;1037.7;;;23;38.5
76044;BME280;64740;34.694;33.088;2024-03-25T10:20:26;1037.6;;;23.2;38.4
76044;BME280;64740;34.694;33.088;2024-03-25T10:24:48;1037.6;;;23.2;38.4
76044;BME280;64740;34.694;33.088;2024-03-25T10:30:02;1037.6;;;23.3;37.2
76044;BME280;64740;34.694;33.088;2024-03-25T10:35:06;1037.6;;;23.6;35.8
76044;BME280;64740;34.694;33.088;2024-03-25T10:39:56;1037.6;;;23.6;35.8
76044;BME280;64740;34.694;33.088;2024-03-25T10:45:24;1037.6;;;24;35.5
76044;BME280;64740;34.694;33.088;2024-03-25T10:50:08;1037.6;;;24;35.8
76044;BME280;64740;34.694;33.088;2024-03-25T10:55:14;1037.6;;;24.2;35.4
76044;BME280;64740;34.694;33.088;2024-03-25T11:00:12;1037.5;;;24.5;33.4
76044;BME280;64740;34.694;33.088;2024-03-25T11:05:06;1037.5;;;24.6;33.8
76044;BME280;64740;34.694;33.088;2024-03-25T11:09:50;1037.5;;;24.6;33.8
76044;BME280;64740;34.694;33.088;2024-03-25T11:14:56;1037.4;;;24.7;34.8
76044;BME280;64740;34.694;33.088;2024-03-25T11:20:08;1037.3;;;24.9;32.9
76044;BME280;64740;34.694;33.088;2024-03-25T11:25:16;1037.3;;;25.5;31.4
76044;BME280;64740;34.694;33.088;2024-03-25T11:30:26;1037.2;;;25.6;31.8
76044;BME280;64740;34.694;33.088;2024-03-25T11:34:58;1037.2;;;25.6;31.8
76044;BME280;64740;34.694;33.088;2024-03-25T11:40:08;1037.2;;;25.6;31.4
76044;BME280;64740;34.694;33.088;2024-03-25T11:44:48;1037.2;;;25.6;31.4
76044;BME280;64740;34.694;33.088;2024-03-25T11:49:48;1037.2;;;25.7;31.2
76044;BME280;64740;34.694;33.088;2024-03-25T11:54:58;1037.2;;;25.6;31.3
76044;BME280;64740;34.694;33.088;2024-03-25T11:59:57;1037.3;;;25.5;31.6
76044;BME280;64740;34.694;33.088;2024-03-25T12:05:08;1037.2;;;25.9;31.7
76044;BME280;64740;34.694;33.088;2024-03-25T12:10:26;1037.1;;;25.8;32.4
76044;BME280;64740;34.694;33.088;2024-03-25T12:15:02;1037.1;;;25.8;32.4
76044;BME280;64740;34.694;33.088;2024-03-25T12:20:28;1037;;;25.8;33
76044;BME280;64740;34.694;33.088;2024-03-25T12:25:28;1037.1;;;25.2;33.9
76044;BME280;64740;34.694;33.088;2024-03-25T12:30:02;1037.1;;;25.2;33.9
76044;BME280;64740;34.694;33.088;2024-03-25T12:35:26;1037;;;25;34.7
76044;BME280;64740;34.694;33.088;2024-03-25T12:40:26;1037;;;24.7;36.1
76044;BME280;64740;34.694;33.088;2024-03-25T12:45:08;1037.1;;;24.3;37
76044;BME280;64740;34.694;33.088;2024-03-25T12:49:48;1037.1;;;24.3;37
76044;BME280;64740;34.694;33.088;2024-03-25T12:55:08;1037.2;;;23.9;38.4
76044;BME280;64740;34.694;33.088;2024-03-25T13:00:18;1037.2;;;23.6;38.8
76044;BME280;64740;34.694;33.088;2024-03-25T13:05:28;1037.2;;;23.3;39.9
76044;BME280;64740;34.694;33.088;2024-03-25T13:10:08;1037.2;;;23.4;39.7
76044;BME280;64740;34.694;33.088;2024-03-25T13:14:50;1037.2;;;23.4;39.7
76044;BME280;64740;34.694;33.088;2024-03-25T13:19:56;1037.3;;;23.5;39.5
76044;BME280;64740;34.694;33.088;2024-03-25T13:24:48;1037.3;;;23.4;40.4
76044;BME280;64740;34.694;33.088;2024-03-25T13:30:08;1037.2;;;23;41
76044;BME280;64740;34.694;33.088;2024-03-25T13:34:56;1037.2;;;23;41
76044;BME280;64740;34.694;33.088;2024-03-25T13:39:56;1037.2;;;22.8;41.4
76044;BME280;64740;34.694;33.088;2024-03-25T13:45:28;1037.1;;;23.2;41.3
76044;BME280;64740;34.694;33.088;2024-03-25T13:50:18;1037.2;;;23.1;41.1
76044;BME280;64740;34.694;33.088;2024-03-25T13:55:14;1037.1;;;22.8;41.4
76044;BME280;64740;34.694;33.088;2024-03-25T14:00:28;1037.1;;;22.6;42.3
76044;BME280;64740;34.694;33.088;2024-03-25T14:04:56;1037.1;;;22.6;42.3
76044;BME280;64740;34.694;33.088;2024-03-25T14:10:04;1037.1;;;22.5;42.5
76044;BME280;64740;34.694;33.088;2024-03-25T14:15:26;1037;;;22.2;44.5
76044;BME280;64740;34.694;33.088;2024-03-25T14:19:53;1037;;;22.2;44.5
76044;BME280;64740;34.694;33.088;2024-03-25T14:25:04;1037.1;;;22.1;44.9
76044;BME280;64740;34.694;33.088;2024-03-25T14:30:06;1037;;;22;44.6
76044;BME280;64740;34.694;33.088;2024-03-25T14:35:28;1037.1;;;21.9;44.8
76044;BME280;64740;34.694;33.088;2024-03-25T14:40:28;1037.1;;;21.9;44.6
76044;BME280;64740;34.694;33.088;2024-03-25T14:45:08;1037.1;;;21.8;45
76044;BME280;64740;34.694;33.088;2024-03-25T14:50:18;1037.2;;;21.7;46.2
76044;BME280;64740;34.694;33.088;2024-03-25T14:55:08;1037.3;;;21.6;47.7
76044;BME280;64740;34.694;33.088;2024-03-25T15:00:14;1037.2;;;21.5;49.4
76044;BME280;64740;34.694;33.088;2024-03-25T15:04:48;1037.2;;;21.5;49.4
76044;BME280;64740;34.694;33.088;2024-03-25T15:09:56;1037.2;;;21.4;50.1
76044;BME280;64740;34.694;33.088;2024-03-25T15:15:18;1037.1;;;21.5;50.4
76044;BME280;64740;34.694;33.088;2024-03-25T15:19:48;1037.1;;;21.5;50.4
76044;BME280;64740;34.694;33.088;2024-03-25T15:25:10;1037;;;21.5;50.9
76044;BME280;64740;34.694;33.088;2024-03-25T15:30:04;1037;;;21.5;50.9
76044;BME280;64740;34.694;33.088;2024-03-25T15:35:28;1037;;;21.6;50.4
76044;BME280;64740;34.694;33.088;2024-03-25T15:40:04;1037;;;21.6;50.4
76044;BME280;64740;34.694;33.088;2024-03-25T15:45:28;1037.1;;;21.5;50
76044;BME280;64740;34.694;33.088;2024-03-25T15:50:14;1037;;;21.5;50.3
76044;BME280;64740;34.694;33.088;2024-03-25T15:55:18;1037;;;21.5;50.6
76044;BME280;64740;34.694;33.088;2024-03-25T16:00:28;1037;;;21.6;50.8
76044;BME280;64740;34.694;33.088;2024-03-25T16:05:20;1037;;;21.5;50.2
76044;BME280;64740;34.694;33.088;2024-03-25T16:10:29;1036.9;;;21.5;50.6
76044;BME280;64740;34.694;33.088;2024-03-25T16:14:50;1036.9;;;21.5;50.6
76044;BME280;64740;34.694;33.088;2024-03-25T16:20:00;1037;;;21.4;51
76044;BME280;64740;34.694;33.088;2024-03-25T16:25:28;1037;;;21.4;51.8
76044;BME280;64740;34.694;33.088;2024-03-25T16:30:28;1037;;;21.4;51.7
76044;BME280;64740;34.694;33.088;2024-03-25T16:34:50;1037;;;21.4;51.7
76044;BME280;64740;34.694;33.088;2024-03-25T16:39:48;1037;;;21.4;51
76044;BME280;64740;34.694;33.088;2024-03-25T16:44:48;1037;;;21.3;51.1
76044;BME280;64740;34.694;33.088;2024-03-25T16:49:48;1037.1;;;21.4;51.1
76044;BME280;64740;34.694;33.088;2024-03-25T16:54:48;1037.1;;;21.3;51.2
76044;BME280;64740;34.694;33.088;2024-03-25T17:00:05;1037.1;;;21.3;51.2
76044;BME280;64740;34.694;33.088;2024-03-25T17:04:48;1037.2;;;21.3;51.1
76044;BME280;64740;34.694;33.088;2024-03-25T17:10:14;1037.2;;;21.3;51.6
76044;BME280;64740;34.694;33.088;2024-03-25T17:14:56;1037.2;;;21.3;51.6
76044;BME280;64740;34.694;33.088;2024-03-25T17:20:26;1037.3;;;21.2;51.7
76044;BME280;64740;34.694;33.088;2024-03-25T17:25:16;1037.2;;;21.2;51.6
76044;BME280;64740;34.694;33.088;2024-03-25T17:30:12;1037.3;;;21.2;51.8
76044;BME280;64740;34.694;33.088;2024-03-25T17:34:56;1037.3;;;21.2;51.8
76044;BME280;64740;34.694;33.088;2024-03-25T17:40:12;1037.3;;;21.2;51.8
76044;BME280;64740;34.694;33.088;2024-03-25T17:45:18;1037.1;;;21.2;51.9
76044;BME280;64740;34.694;33.088;2024-03-25T17:49:48;1037.1;;;21.2;51.9
76044;BME280;64740;34.694;33.088;2024-03-25T17:55:08;1037.1;;;21.2;52.7
76044;BME280;64740;34.694;33.088;2024-03-25T17:59:58;1037.1;;;21.2;52.7
76044;BME280;64740;34.694;33.088;2024-03-25T18:05:26;1037.3;;;20.5;52.9
76044;BME280;64740;34.694;33.088;2024-03-25T18:10:10;1037.3;;;20.3;55.6
76044;BME280;64740;34.694;33.088;2024-03-25T18:15:18;1037.3;;;20.4;56.1
76044;BME280;64740;34.694;33.088;2024-03-25T18:19:56;1037.3;;;20.4;56.1
76044;BME280;64740;34.694;33.088;2024-03-25T18:24:48;1037.3;;;20.6;56.5
76044;BME280;64740;34.694;33.088;2024-03-25T18:29:48;1037.3;;;20.8;56.2
76044;BME280;64740;34.694;33.088;2024-03-25T18:34:48;1037.4;;;20.9;55.1
76044;BME280;64740;34.694;33.088;2024-03-25T18:39:48;1037.3;;;21;54.7
76044;BME280;64740;34.694;33.088;2024-03-25T18:45:26;1037.5;;;21.1;53.9
76044;BME280;64740;34.694;33.088;2024-03-25T18:49:50;1037.5;;;21.1;53.9
76044;BME280;64740;34.694;33.088;2024-03-25T18:55:26;1037.5;;;21.1;53.8
76044;BME280;64740;34.694;33.088;2024-03-25T19:00:26;1037.4;;;21.2;53.7
76044;BME280;64740;34.694;33.088;2024-03-25T19:04:48;1037.4;;;21.2;53.7
76044;BME280;64740;34.694;33.088;2024-03-25T19:10:26;1037.4;;;21.2;53.7
76044;BME280;64740;34.694;33.088;2024-03-25T19:15:26;1037.4;;;21.2;53.7
76044;BME280;64740;34.694;33.088;2024-03-25T19:20:02;1037.4;;;21.2;53.7
76044;BME280;64740;34.694;33.088;2024-03-25T19:24:56;1037.4;;;21.2;53.8
76044;BME280;64740;34.694;33.088;2024-03-25T19:30:12;1037.3;;;21.2;54.8
76044;BME280;64740;34.694;33.088;2024-03-25T19:35:17;1037.3;;;21.2;55.8
76044;BME280;64740;34.694;33.088;2024-03-25T19:40:26;1037.3;;;21.2;55.5
76044;BME280;64740;34.694;33.088;2024-03-25T19:45:16;1037.4;;;21.2;55.4
76044;BME280;64740;34.694;33.088;2024-03-25T19:50:28;1037.5;;;21.2;55.5
76044;BME280;64740;34.694;33.088;2024-03-25T19:55:08;1037.3;;;20.9;54.8
76044;BME280;64740;34.694;33.088;2024-03-25T20:00:28;1037.3;;;20.5;56.5
76044;BME280;64740;34.694;33.088;2024-03-25T20:04:48;1037.3;;;20.5;56.5
76044;BME280;64740;34.694;33.088;2024-03-25T20:09:48;1037.4;;;20.3;57.7
76044;BME280;64740;34.694;33.088;2024-03-25T20:15:08;1037.5;;;20;59.2
76044;BME280;64740;34.694;33.088;2024-03-25T20:19:56;1037.5;;;20;59.2
76044;BME280;64740;34.694;33.088;2024-03-25T20:25:02;1037.6;;;19.8;59.6
76044;BME280;64740;34.694;33.088;2024-03-25T20:29:56;1037.5;;;19.9;58.9
76044;BME280;64740;34.694;33.088;2024-03-25T20:35:28;1037.3;;;20.6;57.1
76044;BME280;64740;34.694;33.088;2024-03-25T20:40:02;1037.3;;;20.6;57.1
76044;BME280;64740;34.694;33.088;2024-03-25T20:45:28;1037.5;;;20.6;60.1
76044;BME280;64740;34.694;33.088;2024-03-25T20:50:04;1037.5;;;20.6;60.1
76044;BME280;64740;34.694;33.088;2024-03-25T20:54:50;1037.5;;;20.6;60.7
76044;BME280;64740;34.694;33.088;2024-03-25T21:00:04;1037.5;;;20.5;59
76044;BME280;64740;34.694;33.088;2024-03-25T21:05:06;1037.5;;;20.2;60.3
76044;BME280;64740;34.694;33.088;2024-03-25T21:10:28;1037.5;;;20.2;60.7
76044;BME280;64740;34.694;33.088;2024-03-25T21:15:18;1037.5;;;20.2;60.5
76044;BME280;64740;34.694;33.088;2024-03-25T21:20:18;1037.5;;;20.3;60.2
76044;BME280;64740;34.694;33.088;2024-03-25T21:25:28;1037.4;;;20.3;59.4
76044;BME280;64740;34.694;33.088;2024-03-25T21:30:28;1037.4;;;20.4;58.6
76044;BME280;64740;34.694;33.088;2024-03-25T21:34:48;1037.4;;;20.4;58.6
76044;BME280;64740;34.694;33.088;2024-03-25T21:40:08;1037.2;;;20.4;58
76044;BME280;64740;34.694;33.088;2024-03-25T21:44:48;1037.2;;;20.4;58
76044;BME280;64740;34.694;33.088;2024-03-25T21:49:48;1037.2;;;20.5;57.6
76044;BME280;64740;34.694;33.088;2024-03-25T21:55:06;1037.1;;;20.6;57.2
76044;BME280;64740;34.694;33.088;2024-03-25T22:00:18;1037.1;;;20.6;56.5
76044;BME280;64740;34.694;33.088;2024-03-25T22:05:04;1037.1;;;20.6;56.5
76044;BME280;64740;34.694;33.088;2024-03-25T22:10:28;1037.1;;;20.6;54.9
76044;BME280;64740;34.694;33.088;2024-03-25T22:14:48;1037.1;;;20.6;54.9
76044;BME280;64740;34.694;33.088;2024-03-25T22:20:28;1037.1;;;20.7;54.3
76044;BME280;64740;34.694;33.088;2024-03-25T22:25:04;1037.1;;;20.7;54.3
76044;BME280;64740;34.694;33.088;2024-03-25T22:29:58;1037.1;;;20.7;54.1
76044;BME280;64740;34.694;33.088;2024-03-25T22:35:10;1037;;;20.8;53.9
76044;BME280;64740;34.694;33.088;2024-03-25T22:40:06;1037.1;;;20.8;53.9
76044;BME280;64740;34.694;33.088;2024-03-25T22:45:18;1036.9;;;20.8;53.9
76044;BME280;64740;34.694;33.088;2024-03-25T22:49:58;1036.9;;;20.8;53.9
76044;BME280;64740;34.694;33.088;2024-03-25T22:54:56;1036.8;;;20.8;54.2
76044;BME280;64740;34.694;33.088;2024-03-25T23:00:28;1036.9;;;20.7;54.4
76044;BME280;64740;34.694;33.088;2024-03-25T23:05:28;1036.9;;;20.7;54
76044;BME280;64740;34.694;33.088;2024-03-25T23:10:18;1036.9;;;20.7;53.6
76044;BME280;64740;34.694;33.088;2024-03-25T23:14:56;1036.9;;;20.7;53.6
76044;BME280;64740;34.694;33.088;2024-03-25T23:20:04;1036.9;;;20.7;53.1
76044;BME280;64740;34.694;33.088;2024-03-25T23:25:08;1036.7;;;20.7;53.5
76044;BME280;64740;34.694;33.088;2024-03-25T23:30:04;1036.7;;;20.7;53.5
76044;BME280;64740;34.694;33.088;2024-03-25T23:34:56;1036.7;;;20.7;53.4
76044;BME280;64740;34.694;33.088;2024-03-25T23:39:56;1036.6;;;20.7;53.4
76044;BME280;64740;34.694;33.088;2024-03-25T23:45:16;1036.4;;;20.7;53.7
76044;BME280;64740;34.694;33.088;2024-03-25T23:49:48;1036.4;;;20.7;53.7
76044;BME280;64740;34.694;33.088;2024-03-25T23:55:26;1036.4;;;20.7;53.8
